Time;durP1;ratioP1;P1;durP2;ratioP2;P2;SDS_P1;SDS_P2;PMS_P1;PMS_P2;Temp;Humidity;BMP_temperature;BMP_pressure;BME280_temperature;BME280_humidity;BME280_pressure;Samples;Min_cycle;Max_cycle;Signal;HPM_P1;HPM_P2
2021/11/30 00:01:31;;;;;;;1.10;1.00;;;2.40;98.00;;;;;;5012791;28;20493;-63
2021/11/30 00:04:02;;;;;;;1.20;1.10;;;2.30;98.00;;;;;;5011834;28;20469;-63
2021/11/30 00:06:29;;;;;;;1.10;0.90;;;2.30;98.00;;;;;;5013090;28;20467;-63
2021/11/30 00:09:09;;;;;;;1.10;0.90;;;2.30;98.00;;;;;;5012880;28;20533;-63
2021/11/30 00:11:37;;;;;;;1.20;1.10;;;2.20;98.00;;;;;;5012151;28;20504;-62
2021/11/30 00:14:04;;;;;;;2.53;1.33;;;2.20;98.00;;;;;;5012668;28;20463;-62
2021/11/30 00:16:32;;;;;;;1.10;1.00;;;2.30;98.00;;;;;;5012963;28;20466;-63
2021/11/30 00:18:59;;;;;;;1.20;1.00;;;2.30;98.00;;;;;;5012715;28;20469;-63
2021/11/30 00:21:26;;;;;;;1.10;1.00;;;2.30;98.00;;;;;;5012746;28;21083;-63
2021/11/30 00:23:53;;;;;;;1.20;1.20;;;2.30;98.00;;;;;;5012552;28;20470;-63
2021/11/30 00:26:20;;;;;;;1.10;1.00;;;2.20;98.00;;;;;;5011835;28;20461;-63
2021/11/30 00:28:48;;;;;;;1.10;1.00;;;2.10;98.00;;;;;;5011780;28;20524;-62
2021/11/30 00:31:15;;;;;;;1.10;0.90;;;2.10;98.00;;;;;;5011647;28;20455;-63
2021/11/30 00:33:43;;;;;;;1.10;0.90;;;2.10;98.00;;;;;;5012678;28;20533;-63
2021/11/30 00:36:10;;;;;;;1.10;0.97;;;2.20;98.00;;;;;;5012349;28;20484;-63
2021/11/30 00:38:37;;;;;;;1.10;1.00;;;2.10;98.00;;;;;;5012214;28;20462;-63
2021/11/30 00:41:04;;;;;;;1.10;1.00;;;2.10;98.00;;;;;;5012430;28;20486;-63
2021/11/30 00:43:34;;;;;;;1.30;1.10;;;2.20;98.00;;;;;;5012393;28;20511;-63
2021/11/30 00:46:11;;;;;;;2.03;1.40;;;2.30;98.00;;;;;;5012207;28;20469;-62
2021/11/30 00:48:38;;;;;;;1.57;1.10;;;2.20;98.00;;;;;;5011463;28;20463;-63
2021/11/30 00:51:10;;;;;;;1.10;1.00;;;2.20;98.00;;;;;;5012349;28;20463;-63
2021/11/30 00:53:38;;;;;;;1.20;1.10;;;2.20;98.00;;;;;;5012169;28;20458;-63
2021/11/30 00:56:05;;;;;;;1.10;1.00;;;2.10;98.00;;;;;;5012351;28;20790;-63
2021/11/30 00:58:34;;;;;;;1.10;1.00;;;2.20;98.00;;;;;;5012143;28;20462;-62
2021/11/30 01:01:07;;;;;;;1.10;1.00;;;2.10;98.00;;;;;;5011079;28;21103;-63
2021/11/30 01:03:34;;;;;;;1.10;1.00;;;2.20;98.00;;;;;;5010750;28;20668;-63
2021/11/30 01:06:01;;;;;;;1.10;0.90;;;2.10;98.00;;;;;;5012233;28;20462;-63
2021/11/30 01:08:28;;;;;;;1.70;1.43;;;2.30;98.00;;;;;;5012169;28;20865;-62
2021/11/30 01:10:55;;;;;;;1.30;1.10;;;2.30;98.00;;;;;;5012154;28;20466;-63
2021/11/30 01:13:23;;;;;;;1.10;0.90;;;2.20;98.00;;;;;;5012314;28;20467;-63
2021/11/30 01:15:50;;;;;;;1.10;1.00;;;2.30;98.00;;;;;;5012259;28;20467;-63
2021/11/30 01:18:19;;;;;;;1.37;1.33;;;2.20;98.00;;;;;;5011993;28;20462;-63
2021/11/30 01:20:47;;;;;;;1.10;0.90;;;2.20;98.00;;;;;;5012207;28;20494;-63
2021/11/30 01:23:14;;;;;;;1.10;1.00;;;2.20;98.00;;;;;;5013720;28;20466;-63
2021/11/30 01:25:42;;;;;;;1.10;0.97;;;2.30;98.00;;;;;;5016270;28;20522;-63
2021/11/30 01:28:09;;;;;;;1.10;1.00;;;2.30;98.00;;;;;;5015798;28;20516;-63
2021/11/30 01:30:36;;;;;;;1.10;1.00;;;2.40;98.00;;;;;;5015847;28;20465;-63
2021/11/30 01:33:04;;;;;;;1.47;1.10;;;2.40;98.00;;;;;;5015679;28;20850;-63
2021/11/30 01:35:37;;;;;;;1.30;1.00;;;2.40;98.00;;;;;;5016126;28;20467;-62
2021/11/30 01:38:04;;;;;;;2.23;1.90;;;2.40;98.00;;;;;;5015573;28;20494;-63
2021/11/30 01:40:33;;;;;;;1.97;1.30;;;2.40;98.00;;;;;;5015638;28;20483;-63
2021/11/30 01:43:04;;;;;;;1.10;1.00;;;2.30;98.00;;;;;;5015711;28;20490;-63
2021/11/30 01:45:41;;;;;;;1.40;1.20;;;2.40;98.00;;;;;;5015776;28;20460;-63
2021/11/30 01:50:55;;;;;;;1.10;1.00;;;2.40;98.00;;;;;;5015250;28;20466;-63
2021/11/30 01:53:23;;;;;;;1.10;1.00;;;2.30;98.00;;;;;;5015581;28;20930;-63
2021/11/30 01:55:51;;;;;;;1.10;0.90;;;2.30;98.00;;;;;;5015407;28;20460;-63
2021/11/30 01:58:21;;;;;;;1.10;1.00;;;2.40;98.00;;;;;;5015507;28;21049;-63
2021/11/30 02:00:49;;;;;;;1.10;1.00;;;2.40;98.00;;;;;;5015269;28;20489;-63
2021/11/30 02:03:17;;;;;;;1.10;1.10;;;2.30;98.00;;;;;;5015228;28;20532;-63
2021/11/30 02:05:44;;;;;;;1.20;1.20;;;2.30;98.00;;;;;;5015304;28;20476;-63
2021/11/30 02:08:12;;;;;;;1.10;0.90;;;2.40;98.00;;;;;;5015132;28;20948;-62
2021/11/30 02:10:41;;;;;;;1.20;1.10;;;2.50;98.00;;;;;;5015459;28;20465;-62
2021/11/30 02:13:09;;;;;;;1.10;1.00;;;2.40;98.00;;;;;;5015084;28;20815;-63
2021/11/30 02:15:40;;;;;;;1.43;1.33;;;2.40;98.00;;;;;;5015093;28;20934;-64
2021/11/30 02:18:12;;;;;;;5.63;2.03;;;2.40;98.00;;;;;;5015083;28;20458;-64
2021/11/30 02:20:45;;;;;;;1.10;1.00;;;2.40;98.00;;;;;;5015122;28;20493;-64
2021/11/30 02:23:29;;;;;;;1.20;1.20;;;2.40;98.00;;;;;;5013991;28;20881;-64
2021/11/30 02:25:58;;;;;;;1.10;1.00;;;2.30;98.00;;;;;;5015337;28;20461;-64
2021/11/30 02:28:25;;;;;;;1.10;1.00;;;2.30;98.00;;;;;;5015003;28;20520;-65
2021/11/30 02:30:52;;;;;;;1.10;1.10;;;2.30;98.00;;;;;;5014959;28;20563;-64
2021/11/30 02:33:19;;;;;;;1.10;1.10;;;2.40;98.00;;;;;;5014313;28;20948;-64
2021/11/30 02:35:47;;;;;;;1.10;1.00;;;2.40;98.00;;;;;;5015019;28;20532;-65
2021/11/30 02:38:15;;;;;;;1.10;1.00;;;2.40;98.00;;;;;;5014720;28;20485;-64
2021/11/30 02:40:42;;;;;;;1.20;1.10;;;2.50;98.00;;;;;;5014903;28;21078;-64
2021/11/30 02:43:10;;;;;;;1.10;1.10;;;2.50;98.00;;;;;;5014690;28;20877;-64
2021/11/30 02:45:41;;;;;;;1.10;1.00;;;2.40;98.00;;;;;;5014518;28;20470;-64
2021/11/30 02:48:08;;;;;;;1.10;1.00;;;2.40;98.00;;;;;;5014621;28;20953;-64
2021/11/30 02:50:43;;;;;;;1.10;1.00;;;2.40;98.00;;;;;;5014526;28;20474;-64
2021/11/30 02:53:16;;;;;;;2.07;1.20;;;2.40;98.00;;;;;;5014200;28;20491;-64
2021/11/30 02:55:46;;;;;;;1.10;1.00;;;2.50;98.00;;;;;;5014458;28;20549;-64
2021/11/30 02:58:13;;;;;;;1.10;1.00;;;2.50;98.00;;;;;;5014205;28;20870;-64
2021/11/30 03:00:41;;;;;;;1.10;1.10;;;2.50;98.00;;;;;;5014024;28;20517;-64
2021/11/30 03:03:14;;;;;;;1.10;1.07;;;2.50;98.00;;;;;;5014137;28;20502;-63
2021/11/30 03:05:43;;;;;;;1.10;0.97;;;2.50;98.00;;;;;;5014308;28;20855;-64
2021/11/30 03:08:12;;;;;;;1.10;1.07;;;2.60;98.00;;;;;;5014035;28;20465;-64
2021/11/30 03:10:39;;;;;;;1.10;0.90;;;2.70;98.00;;;;;;5014034;28;20455;-64
2021/11/30 03:13:06;;;;;;;1.10;1.00;;;2.70;98.00;;;;;;5014023;28;20466;-64
2021/11/30 03:15:33;;;;;;;1.13;1.07;;;2.70;98.00;;;;;;5013963;28;20466;-64
2021/11/30 03:18:01;;;;;;;1.67;1.07;;;2.50;98.00;;;;;;5014070;28;20467;-64
2021/11/30 03:20:28;;;;;;;1.10;1.10;;;2.50;98.00;;;;;;5013953;28;20883;-64
2021/11/30 03:22:55;;;;;;;1.10;0.90;;;2.40;98.00;;;;;;5013830;28;20486;-64
2021/11/30 03:25:23;;;;;;;1.10;1.07;;;2.40;98.00;;;;;;5013761;28;20459;-64
2021/11/30 03:27:51;;;;;;;1.10;1.00;;;2.40;98.00;;;;;;5014001;28;20516;-64
2021/11/30 03:30:22;;;;;;;1.10;1.00;;;2.50;98.00;;;;;;5013691;28;20472;-64
2021/11/30 03:35:33;;;;;;;1.10;1.00;;;2.40;98.00;;;;;;5013735;28;20453;-64
2021/11/30 03:38:00;;;;;;;3.77;1.83;;;2.40;98.00;;;;;;5013631;28;20791;-64
2021/11/30 03:40:32;;;;;;;1.33;1.23;;;2.40;98.00;;;;;;5013371;28;20467;-63
2021/11/30 03:42:59;;;;;;;1.10;1.00;;;2.50;98.00;;;;;;5013293;28;20482;-64
2021/11/30 03:45:26;;;;;;;1.10;1.00;;;2.40;98.00;;;;;;5013494;28;20949;-63
2021/11/30 03:47:53;;;;;;;1.10;0.90;;;2.40;98.00;;;;;;5013689;28;20521;-64
2021/11/30 03:50:20;;;;;;;1.10;1.00;;;2.40;98.00;;;;;;5013539;28;20513;-63
2021/11/30 03:52:47;;;;;;;1.20;1.13;;;2.30;98.00;;;;;;5013526;28;20513;-64
2021/11/30 03:55:14;;;;;;;1.10;1.00;;;2.40;98.00;;;;;;5013605;28;20466;-64
2021/11/30 03:57:43;;;;;;;1.10;0.97;;;2.40;98.00;;;;;;5013437;28;20513;-64
2021/11/30 04:00:11;;;;;;;1.10;0.90;;;2.40;98.00;;;;;;5013051;28;20501;-63
2021/11/30 04:02:39;;;;;;;1.20;1.10;;;2.40;98.00;;;;;;5013058;28;20992;-64
2021/11/30 04:05:09;;;;;;;1.10;1.00;;;2.50;98.00;;;;;;5012944;28;20517;-64
2021/11/30 04:07:36;;;;;;;1.10;1.00;;;2.50;98.00;;;;;;5013046;28;20457;-64
2021/11/30 04:10:04;;;;;;;1.10;1.00;;;2.50;98.00;;;;;;5013277;28;20473;-64
2021/11/30 04:12:31;;;;;;;1.10;1.00;;;2.50;98.00;;;;;;5012898;28;20470;-64
2021/11/30 04:15:00;;;;;;;1.10;1.00;;;2.50;98.00;;;;;;5013005;28;20467;-64
2021/11/30 04:17:28;;;;;;;1.20;1.17;;;2.50;98.00;;;;;;5012885;28;20459;-64
2021/11/30 04:19:55;;;;;;;1.10;1.00;;;2.40;98.00;;;;;;5012542;28;20799;-64
2021/11/30 04:22:29;;;;;;;1.10;1.00;;;2.40;98.00;;;;;;5012627;28;20999;-64
2021/11/30 04:24:57;;;;;;;1.57;1.10;;;2.30;98.00;;;;;;5012879;28;20462;-64
2021/11/30 04:27:25;;;;;;;1.10;1.03;;;2.30;98.00;;;;;;5012831;28;20473;-64
2021/11/30 04:29:52;;;;;;;1.10;1.00;;;2.30;98.00;;;;;;5012748;28;20463;-64
2021/11/30 04:32:20;;;;;;;1.10;1.00;;;2.30;98.00;;;;;;5012648;28;20471;-64
2021/11/30 04:34:47;;;;;;;1.20;1.10;;;2.30;98.00;;;;;;5012482;28;20525;-64
2021/11/30 04:37:14;;;;;;;1.87;1.10;;;2.30;98.00;;;;;;5011400;28;20465;-63
2021/11/30 04:39:41;;;;;;;1.10;1.00;;;2.30;98.00;;;;;;5012548;28;20455;-64
2021/11/30 04:42:09;;;;;;;1.10;1.00;;;2.30;98.00;;;;;;5012435;28;20482;-63
2021/11/30 04:44:38;;;;;;;1.10;0.93;;;2.40;98.00;;;;;;5012548;28;20461;-63
2021/11/30 04:47:06;;;;;;;1.10;1.00;;;2.40;98.00;;;;;;5012607;28;20465;-63
2021/11/30 04:49:42;;;;;;;2.50;1.33;;;2.40;98.00;;;;;;5012312;28;20549;-64
2021/11/30 04:52:12;;;;;;;1.10;1.00;;;2.40;98.00;;;;;;5012621;28;20925;-64
2021/11/30 04:54:40;;;;;;;2.07;1.10;;;2.30;98.00;;;;;;5012084;28;20470;-63
2021/11/30 04:57:07;;;;;;;1.93;1.53;;;2.40;98.00;;;;;;5012181;28;20461;-64
2021/11/30 04:59:34;;;;;;;1.10;1.00;;;2.30;98.00;;;;;;5012249;28;20873;-64
2021/11/30 05:02:01;;;;;;;1.10;0.90;;;2.40;98.00;;;;;;5012545;28;20491;-63
2021/11/30 05:04:29;;;;;;;1.10;1.00;;;2.40;98.00;;;;;;5012013;28;20515;-64
2021/11/30 05:06:58;;;;;;;1.10;0.90;;;2.40;98.00;;;;;;5011980;28;20840;-64
2021/11/30 05:09:25;;;;;;;1.10;0.90;;;2.30;98.00;;;;;;5012127;28;20519;-64
2021/11/30 05:11:52;;;;;;;1.10;1.00;;;2.40;98.00;;;;;;5012252;28;20929;-64
2021/11/30 05:14:22;;;;;;;1.60;1.30;;;2.30;98.00;;;;;;5011914;28;20458;-64
2021/11/30 05:16:49;;;;;;;1.10;1.00;;;2.30;98.00;;;;;;5012408;28;20968;-64
2021/11/30 05:19:16;;;;;;;1.10;1.10;;;2.30;98.00;;;;;;5012206;28;20466;-63
2021/11/30 05:21:43;;;;;;;1.10;0.90;;;2.40;98.00;;;;;;5012178;28;20490;-64
2021/11/30 05:24:12;;;;;;;1.10;0.90;;;2.40;98.00;;;;;;5011934;28;20458;-64
2021/11/30 05:26:41;;;;;;;1.10;1.07;;;2.40;98.00;;;;;;5011497;28;20470;-64
2021/11/30 05:29:09;;;;;;;1.30;1.20;;;2.40;98.00;;;;;;5011251;28;20885;-64
2021/11/30 05:31:36;;;;;;;1.10;1.00;;;2.40;98.00;;;;;;5011252;28;20462;-64
2021/11/30 05:34:03;;;;;;;1.10;0.90;;;2.40;98.00;;;;;;5011491;28;20513;-64
2021/11/30 05:36:32;;;;;;;1.10;0.90;;;2.40;98.00;;;;;;5012030;28;20466;-64
2021/11/30 05:39:00;;;;;;;1.10;1.03;;;2.40;98.00;;;;;;5011824;28;20465;-64
2021/11/30 05:41:28;;;;;;;1.10;1.00;;;2.40;98.00;;;;;;5011628;28;20462;-64
2021/11/30 05:43:56;;;;;;;1.10;1.00;;;2.40;98.00;;;;;;5010586;28;20467;-63
2021/11/30 05:46:27;;;;;;;1.10;0.97;;;2.40;98.00;;;;;;5011784;28;20461;-64
2021/11/30 05:48:54;;;;;;;1.10;1.10;;;2.40;98.00;;;;;;5010413;28;20470;-64
2021/11/30 05:51:21;;;;;;;1.10;1.00;;;2.40;98.00;;;;;;5010509;28;20462;-64
2021/11/30 05:53:48;;;;;;;1.10;1.00;;;2.40;98.00;;;;;;5011669;28;20466;-64
2021/11/30 05:56:16;;;;;;;1.10;1.00;;;2.30;98.00;;;;;;5011639;28;20472;-64
2021/11/30 05:58:46;;;;;;;1.10;0.90;;;2.30;98.00;;;;;;5011644;28;20469;-64
2021/11/30 06:01:21;;;;;;;1.10;1.00;;;2.30;98.00;;;;;;5011488;28;20963;-64
2021/11/30 06:03:58;;;;;;;1.10;1.00;;;2.30;98.00;;;;;;5011628;28;20969;-64
2021/11/30 06:06:30;;;;;;;1.10;1.00;;;2.30;98.00;;;;;;5011724;28;20462;-64
2021/11/30 06:08:58;;;;;;;1.57;1.27;;;2.30;98.00;;;;;;5012331;28;20806;-64
2021/11/30 06:11:26;;;;;;;1.20;1.10;;;2.30;98.00;;;;;;5015511;28;20468;-63
2021/11/30 06:13:59;;;;;;;1.10;1.10;;;2.30;98.00;;;;;;5015340;28;20937;-64
2021/11/30 06:16:26;;;;;;;1.10;1.10;;;2.30;98.00;;;;;;5015137;28;20455;-64
2021/11/30 06:18:53;;;;;;;1.20;1.03;;;2.30;98.00;;;;;;5015169;28;20466;-65
2021/11/30 06:21:20;;;;;;;1.20;1.10;;;2.30;98.00;;;;;;5015089;28;20865;-64
2021/11/30 06:23:49;;;;;;;1.20;1.13;;;2.30;98.00;;;;;;5015006;28;20493;-64
2021/11/30 06:26:17;;;;;;;1.10;1.00;;;2.30;98.00;;;;;;5015078;28;20539;-64
2021/11/30 06:28:44;;;;;;;1.20;1.13;;;2.30;98.00;;;;;;5014996;28;20864;-64
2021/11/30 06:31:14;;;;;;;3.50;2.03;;;2.40;98.00;;;;;;5014840;28;20466;-64
2021/11/30 06:33:41;;;;;;;1.10;1.00;;;2.40;98.00;;;;;;5014668;28;20536;-64
2021/11/30 06:36:11;;;;;;;1.10;1.00;;;2.30;98.00;;;;;;5015133;28;20466;-64
2021/11/30 06:38:38;;;;;;;1.10;1.10;;;2.20;98.00;;;;;;5015007;28;20455;-64
2021/11/30 06:41:05;;;;;;;1.10;0.90;;;2.20;98.00;;;;;;5014889;28;20478;-64
2021/11/30 06:43:32;;;;;;;1.10;1.00;;;2.10;98.00;;;;;;5014724;28;20490;-64
2021/11/30 06:45:59;;;;;;;1.37;1.10;;;2.10;98.00;;;;;;5014846;28;20524;-64
2021/11/30 06:48:28;;;;;;;1.10;1.10;;;2.10;98.00;;;;;;5014824;28;20467;-64
2021/11/30 06:50:55;;;;;;;1.10;1.10;;;2.00;98.00;;;;;;5014492;28;20478;-64
2021/11/30 06:53:24;;;;;;;1.10;1.00;;;1.90;98.00;;;;;;5014446;28;20451;-64
2021/11/30 06:55:51;;;;;;;1.10;0.90;;;1.90;98.00;;;;;;5014152;28;20546;-64
2021/11/30 06:58:18;;;;;;;1.10;1.00;;;1.90;98.00;;;;;;5014244;28;20470;-64
2021/11/30 07:00:49;;;;;;;1.10;1.00;;;1.80;98.00;;;;;;5014250;28;20529;-64
2021/11/30 07:03:22;;;;;;;1.30;1.13;;;1.80;98.00;;;;;;5013043;28;20501;-64
2021/11/30 07:05:55;;;;;;;1.10;0.90;;;1.80;98.00;;;;;;5014293;28;20478;-64
2021/11/30 07:08:47;;;;;;;1.10;1.00;;;1.80;98.00;;;;;;5014082;28;20463;-63
2021/11/30 07:11:21;;;;;;;1.10;0.90;;;1.70;98.00;;;;;;5013645;28;20458;-64
2021/11/30 07:13:48;;;;;;;1.10;1.10;;;1.70;98.00;;;;;;5013917;28;20449;-63
2021/11/30 07:16:16;;;;;;;1.10;0.90;;;1.70;98.00;;;;;;5014074;28;20466;-63
2021/11/30 07:18:43;;;;;;;1.10;1.00;;;1.80;98.00;;;;;;5013907;28;20474;-63
2021/11/30 07:21:11;;;;;;;1.10;1.00;;;1.90;98.00;;;;;;5013529;28;20546;-63
2021/11/30 07:23:38;;;;;;;1.80;1.23;;;1.90;98.00;;;;;;5013703;28;20487;-63
2021/11/30 07:26:07;;;;;;;1.10;0.90;;;1.90;98.00;;;;;;5013758;28;20462;-63
2021/11/30 07:28:34;;;;;;;1.10;0.90;;;1.90;98.00;;;;;;5013548;28;20517;-62
2021/11/30 07:31:04;;;;;;;1.10;0.97;;;1.90;98.00;;;;;;5013637;28;20458;-63
2021/11/30 07:33:33;;;;;;;1.10;0.90;;;2.00;98.00;;;;;;5012407;28;20790;-63
2021/11/30 07:36:00;;;;;;;1.10;0.90;;;1.90;98.00;;;;;;5013720;28;20504;-63
2021/11/30 07:38:29;;;;;;;1.10;1.00;;;1.90;98.00;;;;;;5013634;28;20462;-63
2021/11/30 07:40:56;;;;;;;1.10;1.00;;;1.90;98.00;;;;;;5013684;28;20469;-63
2021/11/30 07:43:23;;;;;;;1.10;0.90;;;2.00;98.00;;;;;;5013658;28;20559;-63
2021/11/30 07:45:50;;;;;;;1.10;1.00;;;2.00;98.00;;;;;;5013646;28;20458;-63
2021/11/30 07:48:17;;;;;;;1.10;0.90;;;2.00;98.00;;;;;;5013558;28;20860;-63
2021/11/30 07:50:45;;;;;;;1.20;1.10;;;2.00;98.00;;;;;;5013508;28;20952;-64
2021/11/30 07:53:13;;;;;;;2.27;1.27;;;2.00;98.00;;;;;;5013753;28;20474;-63
2021/11/30 07:55:41;;;;;;;1.73;1.63;;;2.00;98.00;;;;;;5013293;28;20458;-63
2021/11/30 07:58:09;;;;;;;2.07;1.30;;;1.90;98.00;;;;;;5013385;28;20458;-62
2021/11/30 08:00:36;;;;;;;1.10;0.97;;;2.00;98.00;;;;;;5013563;28;20466;-63
2021/11/30 08:03:04;;;;;;;1.10;1.00;;;2.10;98.00;;;;;;5012925;28;20564;-62
2021/11/30 08:05:32;;;;;;;1.10;1.00;;;2.10;98.00;;;;;;5013104;28;20500;-62
2021/11/30 08:08:00;;;;;;;1.10;1.00;;;2.10;98.00;;;;;;5012942;28;21040;-62
2021/11/30 08:10:28;;;;;;;1.20;1.00;;;2.10;98.00;;;;;;5013099;28;20465;-63
2021/11/30 08:12:58;;;;;;;1.10;0.90;;;2.00;98.00;;;;;;5013110;28;20449;-62
2021/11/30 08:15:26;;;;;;;1.10;1.00;;;2.00;98.00;;;;;;5012850;28;20462;-63
2021/11/30 08:17:54;;;;;;;1.10;0.90;;;2.00;98.00;;;;;;5012711;28;20462;-64
2021/11/30 08:20:22;;;;;;;1.10;1.00;;;2.00;98.00;;;;;;5012569;28;20463;-63
2021/11/30 08:22:49;;;;;;;1.10;1.10;;;2.10;98.00;;;;;;5012729;28;20897;-63
2021/11/30 08:25:16;;;;;;;1.20;1.10;;;2.10;98.00;;;;;;5012743;28;20466;-63
2021/11/30 08:27:43;;;;;;;1.10;0.90;;;2.10;98.00;;;;;;5012616;28;20470;-63
2021/11/30 08:30:12;;;;;;;1.10;1.00;;;2.10;98.00;;;;;;5011359;28;20517;-62
2021/11/30 08:32:41;;;;;;;1.10;0.90;;;2.10;98.00;;;;;;5011792;28;20512;-63
2021/11/30 08:35:08;;;;;;;1.10;0.90;;;2.10;98.00;;;;;;5012541;28;20807;-63
2021/11/30 08:37:36;;;;;;;1.10;1.00;;;2.00;98.00;;;;;;5012582;28;20941;-63
2021/11/30 08:40:06;;;;;;;1.10;0.90;;;2.00;98.00;;;;;;5012447;28;20938;-63
2021/11/30 08:42:33;;;;;;;2.47;1.30;;;2.00;98.00;;;;;;5012578;28;20825;-63
2021/11/30 08:45:00;;;;;;;1.10;0.90;;;1.90;98.00;;;;;;5008965;28;20512;-65
2021/11/30 08:47:29;;;;;;;1.10;0.90;;;2.00;98.00;;;;;;5010204;28;20529;-63
2021/11/30 08:49:57;;;;;;;1.10;0.90;;;2.00;98.00;;;;;;5007852;28;20520;-63
2021/11/30 08:52:28;;;;;;;1.20;1.10;;;2.00;98.00;;;;;;5010026;28;20474;-63
2021/11/30 08:54:56;;;;;;;1.10;0.90;;;1.90;98.00;;;;;;5001914;28;20459;-64
2021/11/30 08:57:25;;;;;;;1.10;1.00;;;1.90;98.00;;;;;;5009752;28;20519;-63
2021/11/30 08:59:52;;;;;;;1.10;1.00;;;2.00;98.00;;;;;;5010044;28;20470;-62
2021/11/30 09:02:21;;;;;;;1.10;0.90;;;2.00;98.00;;;;;;5009547;28;20520;-62
2021/11/30 09:04:51;;;;;;;1.10;1.00;;;2.10;98.00;;;;;;5010006;28;20549;-62
2021/11/30 09:07:18;;;;;;;2.07;1.10;;;2.10;98.00;;;;;;5009725;28;20461;-63
2021/11/30 09:09:47;;;;;;;1.10;0.90;;;1.90;98.00;;;;;;5009966;28;20485;-62
2021/11/30 09:12:14;;;;;;;1.10;1.00;;;2.00;98.00;;;;;;5009336;28;20480;-62
2021/11/30 09:14:41;;;;;;;1.43;1.20;;;1.90;98.00;;;;;;5009190;28;20512;-63
2021/11/30 09:17:08;;;;;;;1.10;1.00;;;1.90;98.00;;;;;;5009639;28;20458;-64
2021/11/30 09:19:36;;;;;;;1.10;0.90;;;2.00;98.00;;;;;;5009846;28;20844;-62
2021/11/30 09:22:05;;;;;;;1.20;1.10;;;1.90;98.00;;;;;;5009875;28;20462;-63
2021/11/30 09:24:32;;;;;;;1.10;1.00;;;2.00;98.00;;;;;;5009774;28;20495;-63
2021/11/30 09:26:59;;;;;;;1.10;1.00;;;1.90;98.00;;;;;;5009778;28;20450;-63
2021/11/30 09:29:26;;;;;;;1.10;0.97;;;1.90;98.00;;;;;;5009501;28;20469;-62
2021/11/30 09:31:54;;;;;;;1.10;1.00;;;1.90;98.00;;;;;;5009450;28;20462;-62
2021/11/30 09:34:24;;;;;;;1.10;1.00;;;1.80;98.00;;;;;;5009498;28;20877;-63
2021/11/30 09:36:53;;;;;;;1.10;0.90;;;1.80;98.00;;;;;;5009308;28;20516;-62
2021/11/30 09:39:22;;;;;;;1.10;1.00;;;1.70;98.00;;;;;;5008221;28;20512;-62
2021/11/30 09:41:50;;;;;;;1.20;1.17;;;1.80;98.00;;;;;;5009271;28;20516;-63
2021/11/30 09:44:18;;;;;;;1.10;0.90;;;1.80;98.00;;;;;;5012234;28;20505;-63
2021/11/30 09:46:46;;;;;;;1.10;1.00;;;1.80;98.00;;;;;;5012896;28;20868;-62
2021/11/30 09:49:14;;;;;;;1.10;1.00;;;1.90;98.00;;;;;;5011648;28;20468;-63
2021/11/30 09:51:42;;;;;;;1.10;0.90;;;1.90;98.00;;;;;;5013087;28;21144;-63
2021/11/30 09:54:09;;;;;;;1.10;0.90;;;1.90;98.00;;;;;;5013180;28;20548;-63
2021/11/30 09:56:38;;;;;;;1.10;1.00;;;1.90;98.00;;;;;;5012871;28;20459;-63
2021/11/30 09:59:05;;;;;;;1.10;1.00;;;2.00;98.00;;;;;;5013154;28;20462;-62
2021/11/30 10:01:32;;;;;;;1.10;1.00;;;2.00;98.00;;;;;;5012694;28;20516;-62
2021/11/30 10:04:01;;;;;;;1.10;1.00;;;2.00;98.00;;;;;;5012784;28;20499;-63
2021/11/30 10:06:28;;;;;;;1.10;1.10;;;2.00;98.00;;;;;;5011493;28;20462;-63
2021/11/30 10:08:56;;;;;;;1.10;1.00;;;2.00;98.00;;;;;;5013170;28;20466;-63
2021/11/30 10:11:30;;;;;;;1.10;0.90;;;2.00;98.00;;;;;;5012938;28;20458;-62
2021/11/30 10:14:18;;;;;;;1.10;1.00;;;2.10;98.00;;;;;;5012797;28;20470;-62
2021/11/30 10:17:08;;;;;;;1.10;1.00;;;2.10;98.00;;;;;;5012748;28;20831;-62
2021/11/30 10:19:36;;;;;;;1.17;1.03;;;2.20;98.00;;;;;;5010938;28;20458;-62
2021/11/30 10:22:04;;;;;;;5.03;1.60;;;2.20;98.00;;;;;;5012508;28;20525;-64
2021/11/30 10:24:31;;;;;;;1.10;0.93;;;2.20;98.00;;;;;;5012540;28;20494;-63
2021/11/30 10:26:59;;;;;;;1.10;1.00;;;2.10;98.00;;;;;;5012424;28;20456;-62
2021/11/30 10:29:32;;;;;;;1.10;0.90;;;2.20;98.00;;;;;;5012367;28;20480;-62
2021/11/30 10:31:59;;;;;;;1.30;1.17;;;2.10;98.00;;;;;;5012348;28;20470;-64
2021/11/30 10:34:29;;;;;;;1.20;1.10;;;2.10;98.00;;;;;;5011710;28;20462;-62
2021/11/30 10:37:00;;;;;;;1.10;0.90;;;2.10;98.00;;;;;;5011816;28;20462;-63
2021/11/30 10:39:30;;;;;;;1.10;0.90;;;2.10;98.00;;;;;;5010994;28;20470;-63
2021/11/30 10:42:14;;;;;;;1.10;1.00;;;2.10;98.00;;;;;;5013163;28;20469;-62
2021/11/30 10:44:45;;;;;;;1.10;1.00;;;2.10;98.00;;;;;;5014728;28;20536;-64
2021/11/30 10:47:14;;;;;;;1.10;1.00;;;2.10;98.00;;;;;;5015013;28;20461;-63
2021/11/30 10:49:47;;;;;;;1.10;0.90;;;2.10;98.00;;;;;;5014890;28;20459;-62
2021/11/30 10:52:20;;;;;;;1.10;1.00;;;2.10;98.00;;;;;;5014453;28;20462;-61
2021/11/30 10:54:48;;;;;;;1.10;1.00;;;2.10;98.00;;;;;;5012695;28;20469;-63
2021/11/30 10:57:15;;;;;;;1.10;1.00;;;2.10;98.00;;;;;;5014482;28;20463;-62
2021/11/30 10:59:44;;;;;;;1.10;0.97;;;2.10;98.00;;;;;;5014275;28;20458;-63
2021/11/30 11:02:12;;;;;;;1.10;1.00;;;2.10;98.00;;;;;;5014142;28;20795;-63
2021/11/30 11:04:42;;;;;;;1.10;1.00;;;2.00;98.00;;;;;;5014163;28;20481;-63
2021/11/30 11:07:11;;;;;;;1.10;0.90;;;2.10;98.00;;;;;;5012920;28;20469;-62
2021/11/30 11:09:47;;;;;;;1.10;1.00;;;2.10;98.00;;;;;;5013892;28;20466;-63
2021/11/30 11:12:24;;;;;;;1.10;0.97;;;2.10;98.00;;;;;;5014126;28;20466;-62
2021/11/30 11:14:54;;;;;;;1.10;0.90;;;2.20;98.00;;;;;;5013843;28;20899;-63
2021/11/30 11:17:30;;;;;;;1.10;0.90;;;2.20;98.00;;;;;;5014084;28;20594;-62
2021/11/30 11:20:01;;;;;;;1.10;1.00;;;2.20;98.00;;;;;;5013854;28;20469;-62
2021/11/30 11:22:30;;;;;;;1.10;0.90;;;2.10;98.00;;;;;;5013692;28;20950;-62
2021/11/30 11:25:00;;;;;;;1.10;1.00;;;2.10;98.00;;;;;;5013497;28;20525;-62
2021/11/30 11:27:33;;;;;;;1.10;1.00;;;2.20;98.00;;;;;;5013815;28;20469;-63
2021/11/30 11:30:04;;;;;;;1.10;1.00;;;2.10;98.00;;;;;;5013881;28;20485;-67
2021/11/30 11:32:31;;;;;;;1.10;1.00;;;2.10;98.00;;;;;;5013818;28;20474;-61
2021/11/30 11:34:59;;;;;;;1.30;1.20;;;2.10;98.00;;;;;;5013612;28;20459;-62
2021/11/30 11:37:26;;;;;;;1.97;1.20;;;2.00;98.00;;;;;;5013807;28;20556;-62
2021/11/30 11:39:54;;;;;;;1.10;0.90;;;2.00;98.00;;;;;;5013444;28;20912;-63
2021/11/30 11:42:22;;;;;;;1.10;1.00;;;2.00;98.00;;;;;;5013751;28;20837;-63
2021/11/30 11:44:52;;;;;;;1.20;1.10;;;2.00;98.00;;;;;;5013412;28;20495;-62
2021/11/30 11:47:25;;;;;;;1.10;1.00;;;2.10;98.00;;;;;;5013519;28;20490;-62
2021/11/30 11:49:54;;;;;;;1.10;1.00;;;2.10;98.00;;;;;;5012165;28;20521;-62
2021/11/30 11:52:24;;;;;;;1.10;0.90;;;2.00;98.00;;;;;;5013389;28;20502;-62
2021/11/30 11:55:03;;;;;;;1.10;0.90;;;2.10;98.00;;;;;;5013444;28;20522;-63
2021/11/30 11:57:31;;;;;;;1.10;0.90;;;2.20;98.00;;;;;;5013789;28;20463;-63
2021/11/30 12:00:16;;;;;;;1.10;1.00;;;2.20;98.00;;;;;;5013368;28;20473;-62
2021/11/30 12:02:52;;;;;;;1.10;1.00;;;2.20;98.00;;;;;;5013319;28;20510;-62
2021/11/30 12:05:39;;;;;;;1.10;0.90;;;2.20;98.00;;;;;;5013348;28;20494;-63
2021/11/30 12:08:18;;;;;;;1.10;1.00;;;2.20;98.00;;;;;;5012548;28;20481;-63
2021/11/30 12:10:45;;;;;;;1.10;0.90;;;2.20;98.00;;;;;;5013280;28;20466;-62
2021/11/30 12:13:22;;;;;;;1.10;1.03;;;2.10;98.00;;;;;;5012940;28;20525;-62
2021/11/30 12:16:04;;;;;;;1.10;1.00;;;2.10;98.00;;;;;;5012873;28;20458;-62
2021/11/30 12:18:42;;;;;;;1.53;1.30;;;2.10;98.00;;;;;;5012948;28;20457;-62
2021/11/30 12:21:15;;;;;;;1.10;0.90;;;2.10;98.00;;;;;;5012636;28;20494;-62
2021/11/30 12:23:45;;;;;;;1.10;1.00;;;2.10;98.00;;;;;;5012832;28;20474;-63
2021/11/30 12:26:35;;;;;;;1.10;0.90;;;2.10;98.00;;;;;;5012806;28;20467;-62
2021/11/30 12:29:05;;;;;;;1.10;0.90;;;2.10;98.00;;;;;;5012479;28;20452;-61
2021/11/30 12:31:34;;;;;;;1.10;1.00;;;2.10;98.00;;;;;;5012770;28;20466;-62
2021/11/30 12:34:03;;;;;;;1.10;0.90;;;2.10;98.00;;;;;;5012484;28;20460;-63
2021/11/30 12:36:33;;;;;;;1.17;1.17;;;2.10;98.00;;;;;;5012537;28;20596;-62
2021/11/30 12:39:02;;;;;;;1.10;1.00;;;2.10;98.00;;;;;;5012388;28;20457;-61
2021/11/30 12:41:33;;;;;;;1.10;1.10;;;2.10;98.00;;;;;;5012492;28;20963;-62
2021/11/30 12:44:09;;;;;;;1.10;1.00;;;2.10;98.00;;;;;;5012183;28;20540;-63
2021/11/30 12:46:39;;;;;;;1.10;1.00;;;2.10;98.00;;;;;;5012437;28;20469;-62
2021/11/30 12:49:33;;;;;;;1.10;1.00;;;2.20;98.00;;;;;;5011207;28;20521;-63
2021/11/30 12:52:23;;;;;;;1.10;0.90;;;2.20;98.00;;;;;;5012457;28;20454;-63
2021/11/30 12:54:53;;;;;;;1.30;1.00;;;2.30;98.00;;;;;;5008284;28;20470;-62
2021/11/30 12:57:41;;;;;;;1.10;0.90;;;2.40;98.00;;;;;;5012329;28;20825;-62
2021/11/30 13:00:11;;;;;;;1.10;1.00;;;2.40;98.00;;;;;;5012239;28;20960;-63
2021/11/30 13:02:40;;;;;;;1.10;1.00;;;2.40;98.00;;;;;;5012220;28;20477;-62
2021/11/30 13:05:27;;;;;;;1.10;1.00;;;2.40;98.00;;;;;;5012155;28;20592;-62
2021/11/30 13:08:08;;;;;;;1.10;0.90;;;2.40;98.00;;;;;;5012493;28;20545;-63
2021/11/30 13:10:51;;;;;;;1.10;0.90;;;2.40;98.00;;;;;;5012116;28;20874;-62
2021/11/30 13:13:21;;;;;;;1.10;0.90;;;2.40;98.00;;;;;;5012367;28;20919;-64
2021/11/30 13:15:52;;;;;;;1.10;0.90;;;2.40;98.00;;;;;;5012337;28;20459;-62